Time;durP1;ratioP1;P1;durP2;ratioP2;P2;SDS_P1;SDS_P2;PMS_P1;PMS_P2;Temp;Humidity;BMP_temperature;BMP_pressure;BME280_temperature;BME280_humidity;BME280_pressure;Samples;Min_cycle;Max_cycle;Signal;HPM_P1;HPM_P2
2021/04/03 00:02:08;;;;;;;3.83;3.53;;;10.30;27.10;;;;;;10488003;28;20239;-72
2021/04/03 00:07:10;;;;;;;3.10;2.87;;;10.20;27.30;;;;;;10492104;28;20599;-72
2021/04/03 00:12:12;;;;;;;3.70;3.40;;;10.10;27.40;;;;;;10488611;28;20240;-72
2021/04/03 00:17:15;;;;;;;3.43;3.17;;;10.10;27.50;;;;;;10490202;28;20250;-71
2021/04/03 00:22:17;;;;;;;3.30;3.00;;;10.10;27.40;;;;;;10488471;28;20224;-72
2021/04/03 00:27:19;;;;;;;2.73;2.53;;;10.00;27.40;;;;;;10487181;28;20470;-73
2021/04/03 00:32:23;;;;;;;4.73;4.00;;;10.00;27.50;;;;;;10488472;28;20230;-72
2021/04/03 00:37:25;;;;;;;4.70;4.30;;;9.90;29.00;;;;;;10487695;28;20808;-72
2021/04/03 00:42:27;;;;;;;4.20;3.90;;;9.90;28.70;;;;;;10486656;28;20224;-72
2021/04/03 00:47:30;;;;;;;4.30;3.70;;;9.90;28.50;;;;;;10486981;28;20777;-72
2021/04/03 00:52:32;;;;;;;4.90;3.60;;;9.80;28.50;;;;;;10485969;28;20240;-72
2021/04/03 00:57:36;;;;;;;4.00;3.60;;;9.80;28.50;;;;;;10489899;28;20232;-71
2021/04/03 01:02:39;;;;;;;4.23;3.83;;;9.70;28.90;;;;;;10494845;28;20319;-72
2021/04/03 01:07:42;;;;;;;4.97;4.00;;;9.60;28.80;;;;;;10493269;28;20231;-72
2021/04/03 01:12:56;;;;;;;4.40;3.77;;;9.60;28.80;;;;;;10494482;28;20716;-72
2021/04/03 01:18:10;;;;;;;3.90;3.50;;;9.60;28.80;;;;;;10495997;28;20235;-72
2021/04/03 01:23:40;;;;;;;3.43;3.10;;;9.50;28.70;;;;;;10490637;28;20310;-71
2021/04/03 01:29:04;;;;;;;5.63;3.40;;;9.50;28.70;;;;;;10494497;28;20236;-72
2021/04/03 01:34:09;;;;;;;4.30;3.10;;;9.40;28.70;;;;;;10492853;28;20222;-72
2021/04/03 01:39:16;;;;;;;3.93;3.10;;;9.50;28.30;;;;;;10492626;28;20708;-72
2021/04/03 01:44:21;;;;;;;4.50;3.00;;;9.50;28.30;;;;;;10489358;28;20224;-72
2021/04/03 01:49:25;;;;;;;4.73;3.00;;;9.40;28.30;;;;;;10490893;28;20247;-71
2021/04/03 01:54:29;;;;;;;3.40;2.67;;;9.40;28.10;;;;;;10493366;28;20704;-70
2021/04/03 01:59:32;;;;;;;6.57;2.90;;;9.40;28.20;;;;;;10494198;28;20311;-71
2021/04/03 02:04:38;;;;;;;4.77;3.00;;;9.40;28.20;;;;;;10487964;28;20234;-71
2021/04/03 02:09:40;;;;;;;4.30;3.00;;;9.50;28.30;;;;;;10492221;28;20228;-71
2021/04/03 02:14:44;;;;;;;7.00;3.40;;;9.50;28.20;;;;;;10490318;28;20602;-71
2021/04/03 02:19:47;;;;;;;3.53;3.03;;;9.50;28.00;;;;;;10489299;28;20260;-71
2021/04/03 02:24:50;;;;;;;3.00;2.70;;;9.50;28.00;;;;;;10495512;28;20596;-71
2021/04/03 02:29:52;;;;;;;5.53;3.13;;;9.50;28.00;;;;;;10491206;28;20225;-71
2021/04/03 02:34:55;;;;;;;4.40;2.93;;;9.50;28.00;;;;;;10488505;28;20227;-71
2021/04/03 02:40:18;;;;;;;3.93;3.13;;;9.50;27.90;;;;;;10487699;28;20252;-71
2021/04/03 02:45:24;;;;;;;5.70;3.30;;;9.50;28.00;;;;;;10492301;28;20228;-71
2021/04/03 02:50:35;;;;;;;5.03;3.17;;;9.50;27.90;;;;;;10488182;28;20701;-71
2021/04/03 02:55:40;;;;;;;6.00;3.40;;;9.50;28.10;;;;;;10490851;28;20230;-71
2021/04/03 03:00:44;;;;;;;5.03;3.47;;;9.50;28.00;;;;;;10479202;28;20227;-71
2021/04/03 03:05:48;;;;;;;3.77;3.40;;;9.50;28.50;;;;;;10489617;28;20234;-71
2021/04/03 03:10:52;;;;;;;4.20;3.17;;;9.40;27.90;;;;;;10489784;28;20715;-71
2021/04/03 03:15:54;;;;;;;5.00;3.40;;;9.30;27.90;;;;;;10489374;28;20232;-71
2021/04/03 03:20:58;;;;;;;4.17;3.30;;;9.30;28.00;;;;;;10489778;28;20311;-71
2021/04/03 03:26:00;;;;;;;5.20;3.30;;;9.30;28.40;;;;;;10490627;28;20686;-71
2021/04/03 03:31:03;;;;;;;5.37;3.33;;;9.20;28.30;;;;;;10483565;28;20225;-71
2021/04/03 03:36:08;;;;;;;4.50;2.93;;;9.20;28.20;;;;;;10489520;28;20251;-71
2021/04/03 03:41:10;;;;;;;4.23;3.10;;;9.10;28.50;;;;;;10491598;28;20237;-71
2021/04/03 03:46:12;;;;;;;8.67;3.43;;;9.00;28.40;;;;;;10492208;28;20224;-71
2021/04/03 03:51:16;;;;;;;4.83;2.90;;;8.90;28.40;;;;;;10486340;28;20224;-71
2021/04/03 03:56:18;;;;;;;4.97;3.03;;;8.80;28.30;;;;;;10489158;28;20837;-71
2021/04/03 04:01:21;;;;;;;6.10;3.17;;;8.70;28.20;;;;;;10487123;28;21180;-71
2021/04/03 04:06:24;;;;;;;4.73;2.90;;;8.60;28.20;;;;;;10487227;28;20627;-71
2021/04/03 04:11:26;;;;;;;5.17;3.00;;;8.60;28.20;;;;;;10488414;28;20235;-71
2021/04/03 04:16:28;;;;;;;4.90;2.70;;;8.50;28.20;;;;;;10487891;28;20728;-71
2021/04/03 04:21:31;;;;;;;4.13;2.63;;;8.40;28.30;;;;;;10488448;28;20709;-71
2021/04/03 04:26:33;;;;;;;6.40;2.60;;;8.30;28.60;;;;;;10486975;28;20236;-71
2021/04/03 04:31:35;;;;;;;4.03;2.40;;;8.20;28.40;;;;;;10488062;28;20661;-71
2021/04/03 04:36:38;;;;;;;5.10;2.60;;;8.10;28.60;;;;;;10496247;28;20238;-71
2021/04/03 04:41:41;;;;;;;3.90;2.50;;;8.00;28.90;;;;;;10495094;28;20235;-71
2021/04/03 04:46:43;;;;;;;5.33;2.80;;;7.90;28.80;;;;;;10496274;28;20231;-71
2021/04/03 04:51:46;;;;;;;4.13;2.37;;;7.80;28.80;;;;;;10493353;28;20607;-71
2021/04/03 04:56:49;;;;;;;6.40;2.80;;;7.80;28.80;;;;;;10493923;28;20596;-71
2021/04/03 05:01:51;;;;;;;3.40;2.40;;;7.80;28.90;;;;;;10494711;28;20230;-71
2021/04/03 05:06:54;;;;;;;3.50;2.50;;;7.80;28.90;;;;;;10497401;28;20243;-71
2021/04/03 05:11:56;;;;;;;3.17;2.30;;;7.80;29.00;;;;;;10494354;28;20243;-71
2021/04/03 05:16:58;;;;;;;2.83;2.50;;;7.80;28.90;;;;;;10493737;28;20232;-71
2021/04/03 05:22:02;;;;;;;4.60;2.90;;;7.80;28.90;;;;;;10494440;28;20259;-71
2021/04/03 05:27:05;;;;;;;4.50;2.47;;;7.80;29.10;;;;;;10494919;28;20224;-70
2021/04/03 05:32:07;;;;;;;5.00;2.70;;;7.80;28.90;;;;;;10492991;28;20231;-71
2021/04/03 05:37:10;;;;;;;4.30;2.57;;;7.80;29.10;;;;;;10496519;28;20239;-70
2021/04/03 05:42:15;;;;;;;4.23;2.73;;;7.80;29.10;;;;;;10491453;28;20613;-70
2021/04/03 05:47:17;;;;;;;4.60;2.80;;;7.80;29.30;;;;;;10493274;28;20236;-71
2021/04/03 05:52:22;;;;;;;3.60;3.00;;;7.80;29.10;;;;;;10491062;28;20239;-71
2021/04/03 05:57:25;;;;;;;3.77;3.10;;;7.80;29.40;;;;;;10492963;28;20228;-71
2021/04/03 06:02:27;;;;;;;5.43;3.17;;;7.90;29.40;;;;;;10495153;28;20248;-71
2021/04/03 06:07:30;;;;;;;4.57;3.07;;;7.90;29.30;;;;;;10493012;28;20228;-70
2021/04/03 06:12:43;;;;;;;4.67;3.10;;;7.90;29.40;;;;;;10492776;28;20242;-71
2021/04/03 06:17:45;;;;;;;4.17;3.30;;;7.90;29.90;;;;;;10486743;28;20224;-70
2021/04/03 06:22:50;;;;;;;5.63;3.40;;;8.00;29.60;;;;;;10491562;28;20585;-71
2021/04/03 06:28:05;;;;;;;4.23;2.97;;;8.00;29.60;;;;;;10488690;28;20730;-71
2021/04/03 06:33:15;;;;;;;3.50;2.93;;;8.00;30.00;;;;;;10486388;28;20223;-71
2021/04/03 06:38:19;;;;;;;4.63;3.10;;;8.10;30.00;;;;;;10491243;28;20228;-71
2021/04/03 06:43:21;;;;;;;5.67;2.70;;;8.20;29.80;;;;;;10491049;28;20236;-70
2021/04/03 06:48:24;;;;;;;4.53;2.93;;;8.20;29.60;;;;;;10483082;28;20706;-70
2021/04/03 06:53:28;;;;;;;4.30;2.70;;;8.30;29.50;;;;;;10490692;28;20229;-70
2021/04/03 06:58:32;;;;;;;5.00;2.70;;;8.40;29.70;;;;;;10493812;28;20711;-71
2021/04/03 07:03:37;;;;;;;5.33;2.50;;;8.40;29.70;;;;;;10490602;28;20755;-70
2021/04/03 07:08:43;;;;;;;4.90;2.70;;;8.50;29.70;;;;;;10489727;28;20259;-71
2021/04/03 07:13:45;;;;;;;5.57;2.73;;;8.60;30.00;;;;;;10489371;28;20234;-70
2021/04/03 07:18:49;;;;;;;3.80;2.57;;;8.60;29.80;;;;;;10489077;28;20250;-71
2021/04/03 07:23:53;;;;;;;4.53;2.70;;;8.70;30.00;;;;;;10489253;28;20266;-71
2021/04/03 07:28:55;;;;;;;4.63;2.60;;;8.70;29.90;;;;;;10486200;28;20239;-71
2021/04/03 07:33:58;;;;;;;3.43;2.57;;;8.80;29.80;;;;;;10488833;28;20229;-71
2021/04/03 07:39:01;;;;;;;3.70;2.80;;;8.90;29.70;;;;;;10489001;28;20238;-71
2021/04/03 07:44:11;;;;;;;4.60;2.90;;;9.00;29.80;;;;;;10485844;28;20224;-71
2021/04/03 07:49:32;;;;;;;4.07;2.40;;;9.00;29.90;;;;;;10487249;28;20248;-71
2021/04/03 07:54:35;;;;;;;5.33;2.40;;;9.10;29.80;;;;;;10487411;28;20252;-70
2021/04/03 07:59:51;;;;;;;4.20;2.57;;;9.20;29.60;;;;;;10488827;28;20246;-71
2021/04/03 08:04:56;;;;;;;4.07;2.60;;;9.20;29.70;;;;;;10486471;28;20230;-71
2021/04/03 08:09:59;;;;;;;3.57;2.33;;;9.20;29.30;;;;;;10496604;28;20232;-69
2021/04/03 08:15:01;;;;;;;4.43;2.53;;;9.30;29.20;;;;;;10506154;28;20222;-70
2021/04/03 08:20:06;;;;;;;5.33;2.30;;;9.30;29.00;;;;;;10498200;28;20224;-70
2021/04/03 08:25:11;;;;;;;4.67;2.63;;;9.30;29.10;;;;;;10498012;28;20224;-74
2021/04/03 08:30:21;;;;;;;5.63;2.50;;;9.30;29.20;;;;;;10491162;28;20232;-70
2021/04/03 08:35:28;;;;;;;3.43;2.40;;;9.30;29.20;;;;;;10505434;28;20730;-70
2021/04/03 08:40:32;;;;;;;3.90;2.37;;;9.30;29.40;;;;;;10482693;28;20225;-70
2021/04/03 08:45:40;;;;;;;2.70;2.30;;;9.20;29.70;;;;;;10492750;28;20303;-72
2021/04/03 08:50:43;;;;;;;3.53;2.23;;;9.20;29.90;;;;;;10490520;28;20228;-70
2021/04/03 08:55:46;;;;;;;4.07;2.47;;;9.30;29.60;;;;;;10488989;28;20224;-69
2021/04/03 09:00:51;;;;;;;8.00;3.47;;;9.40;29.40;;;;;;10491334;28;20242;-70
2021/04/03 09:05:53;;;;;;;50.40;21.63;;;9.50;30.10;;;;;;10496205;28;20278;-69
2021/04/03 09:10:59;;;;;;;7.20;4.80;;;9.80;31.70;;;;;;10489200;28;20238;-70
2021/04/03 09:16:39;;;;;;;6.43;4.73;;;10.30;29.60;;;;;;10487632;28;20220;-70
2021/04/03 09:21:43;;;;;;;7.13;3.93;;;10.70;28.80;;;;;;10489274;28;20262;-70
2021/04/03 09:26:46;;;;;;;6.63;3.17;;;10.80;28.30;;;;;;10488277;28;20231;-70
2021/04/03 09:31:48;;;;;;;5.57;3.27;;;10.90;28.10;;;;;;10489001;28;20613;-70
2021/04/03 09:36:50;;;;;;;6.53;3.50;;;10.90;27.80;;;;;;10492241;28;20554;-70
2021/04/03 09:41:53;;;;;;;4.30;2.87;;;10.90;27.80;;;;;;10481526;28;20229;-70
2021/04/03 09:46:56;;;;;;;3.93;2.93;;;10.80;28.00;;;;;;10488424;28;20224;-70
2021/04/03 09:51:58;;;;;;;5.67;3.10;;;10.80;27.90;;;;;;10485253;28;20256;-70
2021/04/03 09:57:01;;;;;;;4.03;3.20;;;10.80;28.00;;;;;;10485797;28;20220;-70
2021/04/03 10:02:04;;;;;;;3.87;2.80;;;10.70;27.80;;;;;;10486408;28;20671;-70
2021/04/03 10:07:07;;;;;;;5.77;2.93;;;10.70;28.00;;;;;;10484347;28;20220;-70
2021/04/03 10:12:11;;;;;;;10.63;3.60;;;10.80;28.10;;;;;;10490905;28;20240;-70
2021/04/03 10:17:13;;;;;;;4.00;2.77;;;10.80;27.90;;;;;;10485076;28;20300;-70
2021/04/03 10:22:16;;;;;;;3.43;2.70;;;10.90;27.70;;;;;;10485063;28;20219;-70
2021/04/03 10:27:20;;;;;;;3.27;2.40;;;11.00;27.80;;;;;;10480991;28;20217;-70
2021/04/03 10:32:22;;;;;;;3.00;2.00;;;11.10;27.80;;;;;;10489961;28;20247;-70
2021/04/03 10:37:24;;;;;;;2.77;2.00;;;11.20;27.00;;;;;;10487214;28;20224;-70
2021/04/03 10:42:27;;;;;;;3.13;1.80;;;11.30;26.80;;;;;;10494411;28;20224;-70
2021/04/03 10:47:30;;;;;;;5.30;1.90;;;11.30;26.40;;;;;;10509446;28;20246;-70
2021/04/03 10:52:32;;;;;;;3.17;1.90;;;11.40;26.40;;;;;;10490004;28;20240;-70
2021/04/03 10:57:35;;;;;;;2.80;1.80;;;11.40;26.40;;;;;;10488555;28;20247;-71
2021/04/03 11:02:37;;;;;;;2.43;1.63;;;11.50;26.30;;;;;;10490283;28;20598;-71
2021/04/03 11:07:40;;;;;;;3.37;1.87;;;11.50;26.40;;;;;;10483953;28;20601;-70
2021/04/03 11:12:43;;;;;;;4.37;2.17;;;11.60;26.20;;;;;;10487126;28;20247;-70
2021/04/03 11:17:45;;;;;;;3.40;2.20;;;11.50;25.80;;;;;;10483413;28;20228;-70
2021/04/03 11:22:47;;;;;;;3.50;2.00;;;11.50;26.00;;;;;;10486897;28;20228;-70
2021/04/03 11:27:50;;;;;;;3.30;2.10;;;11.50;26.00;;;;;;10480289;28;20881;-70
2021/04/03 11:32:52;;;;;;;2.70;2.30;;;11.40;25.80;;;;;;10482850;28;20239;-70
2021/04/03 11:37:54;;;;;;;3.77;2.10;;;11.40;25.90;;;;;;10478450;28;20228;-71
2021/04/03 11:42:58;;;;;;;3.57;1.90;;;11.40;25.50;;;;;;10484365;28;20275;-70
2021/04/03 11:48:05;;;;;;;3.40;1.87;;;11.50;25.80;;;;;;10483573;28;20220;-71
2021/04/03 11:53:07;;;;;;;2.57;2.30;;;11.60;26.10;;;;;;10488818;28;20232;-71
2021/04/03 11:58:11;;;;;;;3.70;2.00;;;11.60;25.40;;;;;;10487001;28;20874;-71
2021/04/03 12:03:13;;;;;;;2.47;1.87;;;11.70;25.90;;;;;;10489766;28;20707;-71
2021/04/03 12:08:15;;;;;;;4.30;2.20;;;11.70;25.20;;;;;;10486045;28;20254;-70
2021/04/03 12:13:21;;;;;;;2.50;2.00;;;11.70;25.20;;;;;;10486747;28;20236;-71
2021/04/03 12:18:23;;;;;;;2.40;1.80;;;11.80;25.20;;;;;;10483878;28;20224;-71
2021/04/03 12:23:25;;;;;;;3.20;2.10;;;11.90;25.50;;;;;;10481826;28;20603;-71
2021/04/03 12:28:28;;;;;;;2.77;1.80;;;11.90;25.30;;;;;;10485809;28;20232;-71
2021/04/03 12:33:31;;;;;;;2.47;1.80;;;12.00;24.70;;;;;;10486678;28;20589;-71
2021/04/03 12:38:33;;;;;;;3.93;1.93;;;12.00;25.30;;;;;;10487484;28;20319;-71
2021/04/03 12:43:37;;;;;;;2.30;1.90;;;12.10;25.20;;;;;;10484924;28;20319;-70
2021/04/03 12:48:40;;;;;;;4.13;2.20;;;12.20;25.00;;;;;;10487297;28;20236;-70
2021/04/03 12:53:42;;;;;;;3.17;2.00;;;12.30;24.60;;;;;;10486711;28;20713;-70
2021/04/03 12:58:45;;;;;;;2.30;1.70;;;12.20;24.60;;;;;;10486540;28;20231;-70
2021/04/03 13:03:47;;;;;;;5.47;2.67;;;12.30;24.80;;;;;;10492803;28;20334;-70
2021/04/03 13:08:49;;;;;;;3.23;1.60;;;12.30;24.90;;;;;;10491837;28;20609;-70
2021/04/03 13:13:52;;;;;;;2.97;1.63;;;12.30;24.90;;;;;;10492102;28;20235;-70
2021/04/03 13:18:54;;;;;;;2.07;1.70;;;12.50;24.90;;;;;;10489216;28;20731;-70
2021/04/03 13:23:56;;;;;;;3.13;1.73;;;12.50;24.60;;;;;;10481878;28;20232;-70
2021/04/03 13:28:59;;;;;;;1.70;1.60;;;12.60;24.70;;;;;;10487960;28;20498;-70
2021/04/03 13:34:02;;;;;;;4.20;2.30;;;12.60;24.60;;;;;;10488111;28;20602;-71
2021/04/03 13:39:04;;;;;;;3.93;2.23;;;12.70;24.50;;;;;;10491739;28;20325;-70
2021/04/03 13:44:07;;;;;;;3.33;2.30;;;12.60;24.30;;;;;;10486014;28;20216;-71
2021/04/03 13:49:09;;;;;;;3.57;2.37;;;12.60;24.50;;;;;;10485183;28;20254;-71
2021/04/03 13:54:12;;;;;;;2.77;2.00;;;12.60;24.00;;;;;;10481716;28;20228;-71
2021/04/03 13:59:15;;;;;;;3.13;2.10;;;12.60;24.10;;;;;;10489685;28;20365;-71
2021/04/03 14:04:17;;;;;;;2.87;1.90;;;12.60;23.50;;;;;;10481134;28;20707;-71
2021/04/03 14:09:19;;;;;;;2.87;2.03;;;12.50;23.80;;;;;;10480367;28;20236;-71
2021/04/03 14:14:22;;;;;;;2.50;1.90;;;12.40;23.50;;;;;;10492096;28;20239;-71
2021/04/03 14:19:24;;;;;;;3.10;2.10;;;12.40;23.60;;;;;;10480084;28;20255;-71
2021/04/03 14:24:27;;;;;;;2.03;1.63;;;12.30;23.70;;;;;;10487873;28;20224;-71
2021/04/03 14:29:30;;;;;;;2.67;1.90;;;12.40;23.80;;;;;;10483301;28;20234;-70
2021/04/03 14:34:32;;;;;;;3.20;2.10;;;12.50;23.50;;;;;;10484514;28;20247;-71
2021/04/03 14:39:34;;;;;;;3.57;2.20;;;12.50;23.80;;;;;;10489214;28;20237;-71
2021/04/03 14:44:37;;;;;;;2.83;1.73;;;12.60;23.90;;;;;;10486574;28;20228;-71
2021/04/03 14:49:39;;;;;;;3.10;1.70;;;12.70;23.40;;;;;;10489949;28;20716;-71
2021/04/03 14:54:41;;;;;;;2.67;1.80;;;12.70;23.30;;;;;;10477560;28;20313;-70
2021/04/03 14:59:44;;;;;;;2.93;1.50;;;12.70;23.40;;;;;;10486375;28;20236;-71
2021/04/03 15:04:47;;;;;;;1.77;1.50;;;12.80;23.40;;;;;;10486864;28;20592;-71
2021/04/03 15:09:49;;;;;;;2.73;1.73;;;12.80;23.30;;;;;;10485938;28;20228;-71
2021/04/03 15:14:52;;;;;;;2.33;1.50;;;12.70;23.30;;;;;;10482938;28;20237;-72
2021/04/03 15:19:54;;;;;;;2.67;2.00;;;12.70;23.10;;;;;;10485938;28;20750;-73
2021/04/03 15:24:56;;;;;;;2.10;1.60;;;12.70;23.40;;;;;;10477188;28;20739;-73
2021/04/03 15:29:59;;;;;;;1.90;1.30;;;12.80;23.20;;;;;;10485076;28;20230;-73
2021/04/03 15:35:02;;;;;;;2.63;1.60;;;12.80;23.30;;;;;;10483999;28;20220;-72
2021/04/03 15:40:05;;;;;;;2.63;1.60;;;12.80;23.40;;;;;;10484357;28;20289;-73
2021/04/03 15:45:10;;;;;;;2.43;1.50;;;12.90;23.50;;;;;;10485993;28;20228;-72
2021/04/03 15:50:12;;;;;;;4.50;2.37;;;12.90;23.30;;;;;;10489054;28;20493;-73
2021/04/03 15:55:15;;;;;;;3.83;1.63;;;13.00;23.30;;;;;;10486540;28;20224;-71
2021/04/03 16:00:19;;;;;;;2.00;1.60;;;13.00;23.20;;;;;;10486867;28;20231;-71
2021/04/03 16:05:21;;;;;;;1.87;1.40;;;13.00;23.20;;;;;;10487145;28;20232;-71
2021/04/03 16:10:24;;;;;;;3.67;1.60;;;13.00;23.20;;;;;;10479524;28;20236;-72
2021/04/03 16:15:27;;;;;;;2.73;1.60;;;12.90;23.10;;;;;;10487753;28;20236;-72
2021/04/03 16:20:29;;;;;;;1.90;1.40;;;12.90;23.10;;;;;;10481569;28;20228;-72
2021/04/03 16:25:32;;;;;;;4.57;1.60;;;12.90;23.30;;;;;;10481630;28;20723;-71
2021/04/03 16:30:36;;;;;;;12.90;1.80;;;12.90;23.40;;;;;;10488980;28;20228;-75
2021/04/03 16:35:38;;;;;;;2.67;1.50;;;12.90;23.40;;;;;;10487687;28;20231;-71
2021/04/03 16:40:40;;;;;;;1.80;1.30;;;12.90;23.70;;;;;;10488807;28;20331;-71
2021/04/03 16:45:43;;;;;;;2.73;1.83;;;12.90;24.30;;;;;;10492353;28;20696;-71
2021/04/03 16:50:46;;;;;;;1.20;1.10;;;13.00;23.60;;;;;;10486909;28;20504;-71
2021/04/03 16:55:48;;;;;;;2.33;1.43;;;13.00;23.70;;;;;;10492775;28;20232;-71
2021/04/03 17:00:51;;;;;;;3.63;2.50;;;13.00;23.50;;;;;;10493488;28;20250;-71
2021/04/03 17:05:53;;;;;;;4.57;4.17;;;13.00;23.30;;;;;;10487867;28;20731;-71
2021/04/03 17:10:57;;;;;;;3.60;2.03;;;13.00;23.20;;;;;;10492947;28;20232;-72
2021/04/03 17:16:00;;;;;;;1.67;1.57;;;13.00;23.20;;;;;;10495351;28;20240;-71
2021/04/03 17:21:02;;;;;;;2.57;2.30;;;13.00;23.10;;;;;;10487181;28;20232;-71
2021/04/03 17:26:04;;;;;;;2.03;1.50;;;12.90;23.00;;;;;;10491697;28;20226;-71
2021/04/03 17:31:07;;;;;;;2.60;1.30;;;13.00;23.10;;;;;;10494422;28;20239;-71
2021/04/03 17:36:09;;;;;;;2.03;1.30;;;12.90;22.80;;;;;;10490385;28;20224;-71
2021/04/03 17:41:12;;;;;;;1.67;1.33;;;12.90;23.00;;;;;;10493894;28;20246;-71
2021/04/03 17:46:15;;;;;;;1.27;1.10;;;12.90;23.00;;;;;;10488954;28;20263;-71
2021/04/03 17:51:17;;;;;;;1.40;1.30;;;12.80;22.80;;;;;;10483644;28;20222;-71
2021/04/03 17:56:20;;;;;;;1.67;1.10;;;12.80;22.90;;;;;;10493901;28;20243;-71
2021/04/03 18:01:23;;;;;;;2.13;1.33;;;12.70;22.80;;;;;;10493131;22;20225;-70
2021/04/03 18:06:25;;;;;;;1.40;1.20;;;12.70;22.90;;;;;;10452584;28;20241;-70
2021/04/03 18:11:27;;;;;;;2.70;1.37;;;12.60;23.00;;;;;;10442146;28;20671;-70
2021/04/03 18:16:30;;;;;;;1.70;1.30;;;12.60;23.00;;;;;;10411710;28;20603;-70
2021/04/03 18:21:32;;;;;;;3.67;1.67;;;12.50;23.10;;;;;;10410635;28;20232;-70
2021/04/03 18:26:35;;;;;;;1.90;1.60;;;12.50;23.10;;;;;;10409076;28;20344;-70
2021/04/03 18:31:39;;;;;;;5.00;4.13;;;12.40;23.20;;;;;;10409605;28;20240;-70
2021/04/03 18:36:42;;;;;;;6.23;5.30;;;12.40;23.10;;;;;;10405193;28;20767;-70
2021/04/03 18:42:03;;;;;;;6.20;4.80;;;12.40;23.20;;;;;;10410103;28;20230;-70
2021/04/03 18:47:07;;;;;;;3.47;3.13;;;12.30;23.20;;;;;;10404733;28;20230;-70
2021/04/03 18:52:09;;;;;;;3.00;2.53;;;12.30;23.30;;;;;;10403417;28;20243;-72
2021/04/03 18:57:11;;;;;;;3.17;1.80;;;12.20;23.20;;;;;;10395231;28;20257;-71
2021/04/03 19:02:14;;;;;;;2.30;2.10;;;12.10;23.90;;;;;;10423465;28;20239;-73
2021/04/03 19:07:16;;;;;;;2.53;2.30;;;12.00;23.40;;;;;;10387777;28;20255;-74
2021/04/03 19:12:19;;;;;;;3.13;2.20;;;12.00;23.50;;;;;;10394236;28;20316;-73
2021/04/03 19:17:22;;;;;;;3.43;2.03;;;11.90;23.50;;;;;;10408396;28;20233;-72
2021/04/03 19:22:25;;;;;;;2.10;1.90;;;11.90;23.40;;;;;;10401848;28;20253;-72
2021/04/03 19:27:27;;;;;;;2.97;2.20;;;11.80;23.50;;;;;;10410053;28;20224;-72
2021/04/03 19:32:31;;;;;;;5.80;4.60;;;11.70;23.40;;;;;;10411692;28;20240;-71
2021/04/03 19:37:34;;;;;;;7.90;5.13;;;11.60;23.40;;;;;;10409957;28;20248;-72
2021/04/03 19:42:36;;;;;;;5.80;4.03;;;11.50;23.40;;;;;;10402078;28;20891;-73
2021/04/03 19:47:41;;;;;;;6.00;3.70;;;11.30;23.60;;;;;;10394008;28;20242;-71
2021/04/03 19:52:43;;;;;;;5.00;3.60;;;11.20;23.60;;;;;;10391838;28;20237;-71
2021/04/03 19:57:45;;;;;;;4.37;2.97;;;11.10;23.60;;;;;;10395960;28;20745;-71
2021/04/03 20:02:48;;;;;;;7.80;3.97;;;11.00;23.60;;;;;;10417310;28;20233;-71
2021/04/03 20:07:56;;;;;;;6.23;4.00;;;10.90;23.70;;;;;;10415230;28;20853;-71
2021/04/03 20:12:58;;;;;;;5.63;3.03;;;10.80;23.70;;;;;;10416493;28;20514;-71
2021/04/03 20:18:05;;;;;;;7.43;4.90;;;10.60;23.80;;;;;;10409457;28;20230;-73
2021/04/03 20:23:08;;;;;;;9.63;7.13;;;10.40;24.80;;;;;;10405682;28;20229;-72
2021/04/03 20:28:10;;;;;;;15.00;10.97;;;10.40;24.70;;;;;;10408149;28;20728;-69
2021/04/03 20:33:14;;;;;;;6.90;5.83;;;10.40;24.50;;;;;;10412826;28;20237;-69
2021/04/03 20:38:16;;;;;;;9.63;4.97;;;10.40;24.40;;;;;;10407391;28;20234;-68
2021/04/03 20:43:18;;;;;;;7.57;4.17;;;10.20;24.30;;;;;;10415267;28;20248;-68
2021/04/03 20:48:21;;;;;;;8.87;4.23;;;10.10;24.20;;;;;;10414014;28;20232;-68
2021/04/03 20:53:23;;;;;;;4.47;4.07;;;10.00;24.40;;;;;;10406027;28;20257;-69
2021/04/03 20:58:27;;;;;;;6.30;5.03;;;9.90;25.30;;;;;;10409395;28;20233;-68
2021/04/03 21:03:31;;;;;;;6.70;5.47;;;9.80;25.30;;;;;;10409451;28;20233;-69
2021/04/03 21:08:33;;;;;;;8.80;7.90;;;9.80;25.40;;;;;;10409012;28;20233;-68
2021/04/03 21:13:36;;;;;;;9.50;8.23;;;9.60;25.40;;;;;;10416090;28;20237;-69
2021/04/03 21:18:39;;;;;;;8.20;6.60;;;9.50;25.30;;;;;;10411214;28;20340;-68
2021/04/03 21:23:41;;;;;;;7.90;7.10;;;9.40;25.40;;;;;;10433419;28;20871;-68
2021/04/03 21:28:43;;;;;;;9.03;7.20;;;9.20;26.00;;;;;;10407989;28;20248;-69
2021/04/03 21:33:46;;;;;;;7.93;6.10;;;9.10;25.60;;;;;;10412549;28;20236;-68
2021/04/03 21:38:49;;;;;;;8.23;6.93;;;9.00;25.80;;;;;;10404123;28;20609;-69
2021/04/03 21:43:51;;;;;;;14.53;10.30;;;9.00;25.80;;;;;;10412497;28;20240;-68
2021/04/03 21:48:54;;;;;;;15.50;10.47;;;8.90;25.90;;;;;;10407185;28;20313;-69
2021/04/03 21:53:56;;;;;;;10.07;5.87;;;8.90;26.00;;;;;;10411951;28;20328;-68
2021/04/03 21:58:58;;;;;;;6.03;5.00;;;8.80;26.10;;;;;;10407881;28;20232;-68
2021/04/03 22:04:02;;;;;;;5.13;4.30;;;8.80;26.00;;;;;;10411616;28;20236;-68
2021/04/03 22:09:05;;;;;;;5.50;4.43;;;8.80;26.30;;;;;;10414826;28;20444;-69
2021/04/03 22:14:07;;;;;;;5.00;3.97;;;8.80;26.30;;;;;;10409177;28;20229;-69
2021/04/03 22:19:10;;;;;;;5.87;3.70;;;8.70;26.20;;;;;;10423752;28;20237;-69
2021/04/03 22:24:12;;;;;;;5.93;3.43;;;8.70;26.30;;;;;;10419915;28;20234;-69
2021/04/03 22:29:15;;;;;;;4.90;3.70;;;8.60;26.30;;;;;;10420992;28;20233;-69
2021/04/03 22:34:18;;;;;;;4.97;3.73;;;8.40;26.30;;;;;;10416763;28;20233;-69
2021/04/03 22:39:20;;;;;;;6.40;3.90;;;8.30;26.50;;;;;;10411308;28;20705;-69
2021/04/03 22:44:23;;;;;;;5.47;4.10;;;8.20;26.40;;;;;;10420202;28;20233;-72
2021/04/03 22:49:26;;;;;;;5.53;4.13;;;8.20;26.60;;;;;;10428118;28;20225;-72
2021/04/03 22:54:29;;;;;;;6.00;4.27;;;8.10;26.90;;;;;;10423598;28;20239;-72
2021/04/03 22:59:31;;;;;;;5.73;3.83;;;8.10;26.90;;;;;;10420040;28;20221;-72
2021/04/03 23:04:34;;;;;;;5.40;3.63;;;8.10;26.90;;;;;;10431724;28;20237;-72
2021/04/03 23:09:36;;;;;;;4.47;3.73;;;8.00;27.00;;;;;;10416107;28;20221;-72
2021/04/03 23:14:38;;;;;;;5.27;3.73;;;8.00;26.90;;;;;;10418657;28;20229;-72
2021/04/03 23:19:41;;;;;;;6.40;4.20;;;8.00;26.90;;;;;;10427842;28;20229;-72
2021/04/03 23:24:44;;;;;;;4.50;4.10;;;8.00;27.00;;;;;;10429126;28;20252;-72
2021/04/03 23:29:46;;;;;;;5.03;4.20;;;8.10;27.00;;;;;;10420820;28;20225;-72
2021/04/03 23:34:50;;;;;;;4.73;3.80;;;8.10;26.90;;;;;;10408790;28;20336;-73
2021/04/03 23:39:52;;;;;;;8.80;5.27;;;8.00;27.00;;;;;;10421181;28;20239;-73
2021/04/03 23:44:55;;;;;;;8.90;6.53;;;8.00;26.90;;;;;;10413792;28;20241;-73
2021/04/03 23:49:58;;;;;;;11.50;7.23;;;7.90;26.90;;;;;;10408763;28;20228;-73
2021/04/03 23:55:00;;;;;;;9.30;7.33;;;7.80;26.90;;;;;;10411463;28;20233;-73
